Station Historical Data
Daily Summary for November 24, 2017 Units:  English    Metric   Both
« Previous Day
Next Day »
Daily Weekly Monthly Yearly Custom
  High: Low: Average:
Temperature: 62.2 °F 36.1 °F 47.3 °F
Dew Point: 43.7 °F 33.6 °F 38.9 °F
Humidity: 93% 47% 75%
Wind Speed: 3.5mph 0.0mph 0.5mph
Wind Gust: 3.5mph - -
Wind- - SW
Pressure: 30.10 in 29.98 in -
Precipitation: 0.00 in    
Historical Graphs
 
 
Tabular Data for November 24, 2017
Time Temperature Dew Point Pressure Wind Wind Speed Wind Gust Humidity Rainfall Rate (Hourly) solar Conditions
00:03 40.1 °F 36.8 °F 30.08 in Calm     88% 0.00 in WeatherDisplay:10.37 W/m2 CLR
00:08 40.0 °F 36.7 °F 30.08 in Calm     88% 0.00 in WeatherDisplay:10.37 W/m2 CLR
00:13 40.0 °F 36.7 °F 30.08 in Calm     88% 0.00 in WeatherDisplay:10.37 W/m2 CLR
00:14 40.0 °F 36.7 °F 30.08 in Calm     88% 0.00 in WeatherDisplay:10.37 W/m2 CLR
00:19 39.9 °F 36.6 °F 30.08 in Calm     88% 0.00 in WeatherDisplay:10.37 W/m2 CLR
00:24 40.0 °F 37.0 °F 30.08 in Calm     89% 0.00 in WeatherDisplay:10.37 W/m2 CLR
00:30 40.3 °F 37.3 °F 30.08 in Calm     89% 0.00 in WeatherDisplay:10.37 W/m2 CLR
00:45 39.8 °F 36.5 °F 30.07 in Calm     88% 0.00 in WeatherDisplay:10.37 W/m2 CLR
00:50 39.7 °F 36.7 °F 30.07 in Calm     89% 0.00 in WeatherDisplay:10.37 W/m2 CLR
00:55 39.6 °F 36.3 °F 30.07 in Calm     88% 0.00 in WeatherDisplay:10.37 W/m2 CLR
01:00 39.4 °F 36.1 °F 30.07 in Calm     88% 0.00 in WeatherDisplay:10.37 W/m2 CLR
01:05 39.3 °F 36.3 °F 30.07 in Calm     89% 0.00 in WeatherDisplay:10.37 W/m2 CLR
01:10 39.1 °F 36.1 °F 30.07 in Calm     89% 0.00 in WeatherDisplay:10.37 W/m2 CLR
01:15 39.1 °F 36.1 °F 30.08 in Calm     89% 0.00 in WeatherDisplay:10.37 W/m2 CLR
01:21 39.0 °F 36.0 °F 30.07 in Calm     89% 0.00 in WeatherDisplay:10.37 W/m2 CLR
01:31 38.9 °F 35.9 °F 30.07 in Calm     89% 0.00 in WeatherDisplay:10.37 W/m2 CLR
01:36 38.8 °F 35.8 °F 30.07 in Calm     89% 0.00 in WeatherDisplay:10.37 W/m2 CLR
01:41 38.7 °F 36.0 °F 30.07 in Calm     90% 0.00 in WeatherDisplay:10.37 W/m2 CLR
01:46 38.6 °F 35.9 °F 30.07 in Calm     90% 0.00 in WeatherDisplay:10.37 W/m2 CLR
01:51 38.5 °F 35.5 °F 30.07 in Calm     89% 0.00 in WeatherDisplay:10.37 W/m2 CLR
01:56 38.4 °F 35.7 °F 30.07 in Calm     90% 0.00 in WeatherDisplay:10.37 W/m2 CLR
02:06 38.3 °F 35.6 °F 30.07 in Calm     90% 0.00 in WeatherDisplay:10.37 W/m2 CLR
02:08 38.3 °F 35.6 °F 30.07 in Calm     90% 0.00 in WeatherDisplay:10.37 W/m2 CLR
02:13 38.2 °F 35.5 °F 30.07 in Calm     90% 0.00 in WeatherDisplay:10.37 W/m2 CLR
02:18 38.3 °F 35.6 °F 30.07 in Calm     90% 0.00 in WeatherDisplay:10.37 W/m2 CLR
02:28 38.3 °F 35.6 °F 30.07 in Calm     90% 0.00 in WeatherDisplay:10.37 W/m2 CLR
02:39 38.1 °F 35.4 °F 30.07 in Calm     90% 0.00 in WeatherDisplay:10.37 W/m2 CLR
02:44 38.0 °F 35.3 °F 30.07 in Calm     90% 0.00 in WeatherDisplay:10.37 W/m2 CLR
02:54 37.9 °F 35.2 °F 30.07 in Calm     90% 0.00 in WeatherDisplay:10.37 W/m2 CLR
02:59 37.8 °F 35.1 °F 30.07 in Calm     90% 0.00 in WeatherDisplay:10.37 W/m2 CLR
03:09 37.8 °F 35.4 °F 30.07 in Calm     91% 0.00 in WeatherDisplay:10.37 W/m2 CLR
03:14 37.9 °F 35.5 °F 30.07 in Calm     91% 0.00 in WeatherDisplay:10.37 W/m2 CLR
03:19 37.9 °F 35.5 °F 30.07 in Calm     91% 0.00 in WeatherDisplay:10.37 W/m2 CLR
03:24 37.7 °F 35.0 °F 30.07 in Calm     90% 0.00 in WeatherDisplay:10.37 W/m2 CLR
03:29 37.6 °F 34.9 °F 30.07 in Calm     90% 0.00 in WeatherDisplay:10.37 W/m2 CLR
03:34 37.5 °F 34.8 °F 30.07 in Calm     90% 0.00 in WeatherDisplay:10.37 W/m2 CLR
03:40 37.5 °F 34.8 °F 30.07 in Calm     90% 0.00 in WeatherDisplay:10.37 W/m2 CLR
03:45 37.4 °F 34.7 °F 30.07 in Calm     90% 0.00 in WeatherDisplay:10.37 W/m2 CLR
04:05 37.7 °F 35.3 °F 30.07 in Calm     91% 0.00 in WeatherDisplay:10.37 W/m2 CLR
04:15 37.7 °F 35.3 °F 30.07 in Calm     91% 0.00 in WeatherDisplay:10.37 W/m2 CLR
04:20 37.6 °F 35.2 °F 30.07 in Calm     91% 0.00 in WeatherDisplay:10.37 W/m2 CLR
04:25 38.0 °F 35.6 °F 30.07 in Calm     91% 0.00 in WeatherDisplay:10.37 W/m2 CLR
04:30 38.1 °F 35.7 °F 30.08 in Calm     91% 0.00 in WeatherDisplay:10.37 W/m2 CLR
04:35 37.9 °F 35.2 °F 30.08 in Calm     90% 0.00 in WeatherDisplay:10.37 W/m2 CLR
04:46 37.4 °F 34.7 °F 30.08 in Calm     90% 0.00 in WeatherDisplay:10.37 W/m2 CLR
04:51 37.4 °F 34.7 °F 30.08 in Calm     90% 0.00 in WeatherDisplay:10.37 W/m2 CLR
04:55 37.2 °F 34.5 °F 30.08 in Calm     90% 0.00 in WeatherDisplay:10.37 W/m2 CLR
05:00 37.1 °F 34.4 °F 30.08 in Calm     90% 0.00 in WeatherDisplay:10.37 W/m2 CLR
05:05 37.0 °F 34.3 °F 30.08 in Calm     90% 0.00 in WeatherDisplay:10.37 W/m2 CLR
05:10 36.9 °F 34.2 °F 30.08 in Calm     90% 0.00 in WeatherDisplay:10.37 W/m2 CLR
05:15 36.8 °F 34.1 °F 30.08 in Calm     90% 0.00 in WeatherDisplay:10.37 W/m2 CLR
05:21 36.7 °F 34.0 °F 30.08 in Calm     90% 0.00 in WeatherDisplay:10.37 W/m2 CLR
05:26 36.6 °F 33.9 °F 30.08 in Calm     90% 0.00 in WeatherDisplay:10.37 W/m2 CLR
05:31 36.4 °F 33.7 °F 30.08 in Calm     90% 0.00 in WeatherDisplay:10.37 W/m2 CLR
05:35 36.3 °F 33.6 °F 30.08 in Calm     90% 0.00 in WeatherDisplay:10.37 W/m2 CLR
05:40 36.3 °F 33.9 °F 30.08 in Calm     91% 0.00 in WeatherDisplay:10.37 W/m2 CLR
05:45 36.3 °F 33.9 °F 30.08 in Calm     91% 0.00 in WeatherDisplay:10.37 W/m2 CLR
05:50 36.2 °F 33.8 °F 30.08 in Calm     91% 0.00 in WeatherDisplay:10.37 W/m2 CLR
05:55 36.3 °F 33.9 °F 30.08 in Calm     91% 0.00 in WeatherDisplay:10.37 W/m2 CLR
06:00 36.1 °F 33.7 °F 30.08 in Calm     91% 0.00 in WeatherDisplay:10.37 W/m2 CLR
06:05 36.1 °F 33.7 °F 30.08 in Calm     91% 0.00 in WeatherDisplay:10.37 W/m2 CLR
06:10 36.1 °F 33.7 °F 30.08 in Calm     91% 0.00 in WeatherDisplay:10.37 W/m2 CLR
06:15 36.1 °F 33.7 °F 30.08 in Calm     91% 0.00 in WeatherDisplay:10.37 W/m2 CLR
06:20 36.1 °F 33.7 °F 30.08 in Calm     91% 0.00 in WeatherDisplay:10.37 W/m2 CLR
06:25 36.1 °F 33.7 °F 30.08 in Calm     91% 0.00 in WeatherDisplay:10.37 W/m2 CLR
06:30 36.2 °F 33.8 °F 30.08 in Calm     91% 0.00 in WeatherDisplay:10.37 W/m2 CLR
06:36 36.3 °F 33.9 °F 30.08 in Calm     91% 0.00 in WeatherDisplay:10.37 W/m2 CLR
06:41 36.3 °F 33.9 °F 30.08 in Calm     91% 0.00 in WeatherDisplay:10.37 W/m2 CLR
06:46 36.4 °F 34.3 °F 30.08 in Calm     92% 0.00 in WeatherDisplay:10.37 W/m2 CLR
06:51 36.5 °F 34.4 °F 30.08 in Calm     92% 0.00 in WeatherDisplay:10.37 W/m2 CLR
06:56 36.4 °F 34.3 °F 30.08 in Calm     92% 0.00 in WeatherDisplay:10.37 W/m2 CLR
06:58 36.4 °F 34.0 °F 30.08 in Calm     91% 0.00 in WeatherDisplay:10.37 W/m2 CLR
07:03 36.4 °F 34.0 °F 30.08 in Calm     91% 0.00 in WeatherDisplay:10.37 W/m2 BKN
07:08 36.4 °F 34.0 °F 30.08 in Calm     91% 0.00 in WeatherDisplay:10.37 W/m2 BKN
07:13 36.4 °F 34.0 °F 30.08 in Calm     91% 0.00 in WeatherDisplay:10.37 W/m2 BKN
07:18 36.5 °F 34.4 °F 30.08 in Calm     92% 0.00 in WeatherDisplay:10.37 W/m2 BKN
07:23 36.5 °F 34.4 °F 30.08 in Calm     92% 0.00 in WeatherDisplay:10.37 W/m2 BKN
07:28 36.8 °F 34.7 °F 30.09 in Calm     92% 0.00 in WeatherDisplay:10.37 W/m2 BKN
07:33 37.0 °F 34.9 °F 30.09 in Calm     92% 0.00 in WeatherDisplay:10.37 W/m2 BKN
07:38 37.2 °F 35.1 °F 30.09 in Calm     92% 0.00 in WeatherDisplay:10.37 W/m2 BKN
07:43 37.2 °F 35.1 °F 30.09 in Calm     92% 0.00 in WeatherDisplay:10.37 W/m2 BKN
07:49 37.2 °F 35.1 °F 30.09 in Calm     92% 0.00 in WeatherDisplay:10.37 W/m2 BKN
07:54 37.2 °F 35.1 °F 30.09 in Calm     92% 0.00 in WeatherDisplay:10.37 W/m2 BKN
07:59 37.1 °F 35.0 °F 30.09 in Calm     92% 0.00 in WeatherDisplay:10.37 W/m2 BKN
08:04 37.1 °F 35.0 °F 30.09 in Calm     92% 0.00 in WeatherDisplay:10.37 W/m2 FEW
08:08 37.1 °F 35.0 °F 30.09 in Calm     92% 0.00 in WeatherDisplay:10.37 W/m2 FEW
08:13 37.3 °F 35.2 °F 30.09 in Calm     92% 0.00 in WeatherDisplay:10.37 W/m2 FEW
08:18 37.5 °F 35.4 °F 30.10 in Calm     92% 0.00 in WeatherDisplay:10.37 W/m2 FEW
08:23 37.7 °F 35.6 °F 30.10 in Calm     92% 0.00 in WeatherDisplay:10.37 W/m2 FEW
08:29 38.1 °F 36.0 °F 30.10 in Calm     92% 0.00 in WeatherDisplay:10.37 W/m2 FEW
08:34 38.9 °F 37.0 °F 30.10 in Calm     93% 0.00 in WeatherDisplay:10.37 W/m2 FEW
08:39 39.7 °F 37.6 °F 30.09 in Calm     92% 0.00 in WeatherDisplay:10.37 W/m2 FEW
08:44 40.7 °F 37.7 °F 30.10 in Calm     89% 0.00 in WeatherDisplay:10.37 W/m2 FEW
08:49 41.7 °F 38.1 °F 30.09 in Calm     87% 0.00 in WeatherDisplay:10.37 W/m2 FEW
08:54 42.6 °F 38.4 °F 30.10 in Calm     85% 0.00 in WeatherDisplay:10.37 W/m2 FEW
08:59 43.4 °F 38.6 °F 30.10 in West 1.2 mph   83% 0.00 in WeatherDisplay:10.37 W/m2 FEW
09:04 44.0 °F 38.9 °F 30.10 in West 1.2 mph   82% 0.00 in WeatherDisplay:10.37 W/m2 CLR
09:09 44.3 °F 38.8 °F 30.10 in West 1.2 mph 1.2 mph 81% 0.00 in WeatherDisplay:10.37 W/m2 CLR
09:14 44.7 °F 39.2 °F 30.10 in West 1.2 mph   81% 0.00 in WeatherDisplay:10.37 W/m2 CLR
09:19 45.1 °F 39.6 °F 30.10 in West 1.2 mph   81% 0.00 in WeatherDisplay:10.37 W/m2 CLR
09:25 45.5 °F 39.4 °F 30.10 in Calm   1.0 mph 79% 0.00 in WeatherDisplay:10.37 W/m2 CLR
09:30 46.0 °F 39.5 °F 30.10 in West 1.2 mph   78% 0.00 in WeatherDisplay:10.37 W/m2 CLR
09:35 46.6 °F 40.1 °F 30.10 in West 1.2 mph   78% 0.00 in WeatherDisplay:10.37 W/m2 CLR
09:40 46.9 °F 40.1 °F 30.10 in West 1.2 mph   77% 0.00 in WeatherDisplay:10.37 W/m2 CLR
09:45 47.6 °F 40.4 °F 30.10 in West 1.2 mph   76% 0.00 in WeatherDisplay:10.37 W/m2 CLR
09:50 48.1 °F 40.2 °F 30.10 in WNW 1.2 mph   74% 0.00 in WeatherDisplay:10.37 W/m2 CLR
09:55 48.8 °F 40.2 °F 30.10 in WNW 1.2 mph   72% 0.00 in WeatherDisplay:10.37 W/m2 CLR
10:00 48.9 °F 39.5 °F 30.10 in West 2.3 mph 2.3 mph 70% 0.00 in WeatherDisplay:10.37 W/m2 CLR
10:05 49.1 °F 39.7 °F 30.10 in West 2.3 mph 2.3 mph 70% 0.00 in WeatherDisplay:10.37 W/m2 CLR
10:10 49.8 °F 40.0 °F 30.10 in WNW 2.3 mph   69% 0.00 in WeatherDisplay:10.37 W/m2 CLR
10:15 51.2 °F 41.0 °F 30.09 in WNW 1.2 mph   68% 0.00 in WeatherDisplay:10.37 W/m2 CLR
10:21 51.6 °F 39.8 °F 30.09 in WNW 1.2 mph   64% 0.00 in WeatherDisplay:10.37 W/m2 CLR
10:26 52.5 °F 41.1 °F 30.09 in WNW 1.2 mph   65% 0.00 in WeatherDisplay:10.37 W/m2 CLR
10:31 52.7 °F 40.5 °F 30.09 in West 2.3 mph   63% 0.00 in WeatherDisplay:10.37 W/m2 CLR
10:36 53.2 °F 40.5 °F 30.09 in West 2.3 mph   62% 0.00 in WeatherDisplay:10.37 W/m2 CLR
10:41 53.7 °F 39.7 °F 30.09 in WNW 1.2 mph   59% 0.00 in WeatherDisplay:10.37 W/m2 CLR
10:46 54.0 °F 40.4 °F 30.09 in WNW 1.2 mph 1.2 mph 60% 0.00 in WeatherDisplay:10.37 W/m2 CLR
10:51 54.7 °F 39.3 °F 30.09 in WNW 1.2 mph   56% 0.00 in WeatherDisplay:10.37 W/m2 CLR
10:56 55.1 °F 39.7 °F 30.09 in NW 1.2 mph   56% 0.00 in WeatherDisplay:10.37 W/m2 CLR
11:01 55.0 °F 39.6 °F 30.09 in WNW 1.2 mph   56% 0.00 in WeatherDisplay:10.37 W/m2 CLR
11:06 55.1 °F 39.7 °F 30.08 in WNW 1.2 mph   56% 0.00 in WeatherDisplay:10.37 W/m2 CLR
11:11 55.5 °F 40.0 °F 30.08 in WNW 1.2 mph   56% 0.00 in WeatherDisplay:10.37 W/m2 CLR
11:16 55.3 °F 38.4 °F 30.08 in West 1.2 mph 1.2 mph 53% 0.00 in WeatherDisplay:10.37 W/m2 CLR
11:21 55.3 °F 38.9 °F 30.08 in WSW 2.3 mph 2.3 mph 54% 0.00 in WeatherDisplay:10.37 W/m2 CLR
11:26 55.0 °F 38.6 °F 30.07 in West 2.3 mph   54% 0.00 in WeatherDisplay:10.37 W/m2 CLR
11:31 55.5 °F 39.6 °F 30.07 in WNW 2.3 mph 2.3 mph 55% 0.00 in WeatherDisplay:10.37 W/m2 CLR
11:34 55.5 °F 38.6 °F 30.07 in Calm   2.0 mph 53% 0.00 in WeatherDisplay:10.37 W/m2
11:37 55.4 °F 39.0 °F 30.07 in WNW 2.3 mph   54% 0.00 in WeatherDisplay:10.37 W/m2 CLR
11:42 55.7 °F 39.8 °F 30.07 in NW 2.3 mph 2.3 mph 55% 0.00 in WeatherDisplay:10.37 W/m2 CLR
11:47 56.3 °F 40.8 °F 30.07 in WNW 1.2 mph   56% 0.00 in WeatherDisplay:10.37 W/m2 CLR
11:52 56.8 °F 39.8 °F 30.07 in West 1.2 mph 1.2 mph 53% 0.00 in WeatherDisplay:10.37 W/m2 CLR
11:57 56.8 °F 40.8 °F 30.06 in NNW 1.2 mph   55% 0.00 in WeatherDisplay:10.37 W/m2 CLR
12:02 57.0 °F 40.5 °F 30.06 in North 1.2 mph   54% 0.00 in WeatherDisplay:10.37 W/m2 CLR
12:07 57.0 °F 41.0 °F 30.06 in NNE 2.3 mph   55% 0.00 in WeatherDisplay:10.37 W/m2 CLR
12:12 57.2 °F 41.6 °F 30.06 in NNE 2.3 mph 2.3 mph 56% 0.00 in WeatherDisplay:10.37 W/m2 CLR
12:17 57.4 °F 40.9 °F 30.05 in NW 2.3 mph   54% 0.00 in WeatherDisplay:10.37 W/m2 CLR
12:22 57.8 °F 42.2 °F 30.05 in WNW 1.2 mph   56% 0.00 in WeatherDisplay:10.37 W/m2 CLR
12:28 58.2 °F 42.1 °F 30.05 in West 1.2 mph   55% 0.00 in WeatherDisplay:10.37 W/m2 CLR
12:38 59.2 °F 41.6 °F 30.04 in West 2.3 mph 2.3 mph 52% 0.00 in WeatherDisplay:10.37 W/m2 CLR
12:43 59.0 °F 41.4 °F 30.03 in SW 2.3 mph 2.3 mph 52% 0.00 in WeatherDisplay:10.37 W/m2 CLR
12:48 59.1 °F 41.5 °F 30.03 in WSW 2.3 mph 2.3 mph 52% 0.00 in WeatherDisplay:10.37 W/m2 CLR
12:53 59.3 °F 42.6 °F 30.03 in North 1.2 mph   54% 0.00 in WeatherDisplay:10.37 W/m2 CLR
12:58 59.7 °F 42.0 °F 30.02 in NNW 2.3 mph   52% 0.00 in WeatherDisplay:10.37 W/m2 CLR
13:03 60.1 °F 42.4 °F 30.02 in NNE 2.3 mph 2.3 mph 52% 0.00 in WeatherDisplay:10.37 W/m2 CLR
13:08 60.5 °F 42.8 °F 30.02 in NNE 1.2 mph   52% 0.00 in WeatherDisplay:10.37 W/m2 CLR
13:13 60.6 °F 41.8 °F 30.02 in North 1.2 mph 1.2 mph 50% 0.00 in WeatherDisplay:10.37 W/m2 CLR
13:18 60.6 °F 41.8 °F 30.01 in ESE 1.2 mph   50% 0.00 in WeatherDisplay:10.37 W/m2 CLR
13:23 60.7 °F 42.5 °F 30.01 in South 1.2 mph   51% 0.00 in WeatherDisplay:10.37 W/m2 CLR
13:28 60.6 °F 42.9 °F 30.01 in NW 2.3 mph 2.3 mph 52% 0.00 in WeatherDisplay:10.37 W/m2 CLR
13:34 60.6 °F 42.4 °F 30.01 in NNW 2.3 mph 2.3 mph 51% 0.00 in WeatherDisplay:10.37 W/m2 CLR
13:39 60.5 °F 42.3 °F 30.01 in NNE 2.3 mph 2.3 mph 51% 0.00 in WeatherDisplay:10.37 W/m2 CLR
13:44 60.5 °F 42.8 °F 30.00 in ENE 2.3 mph 2.3 mph 52% 0.00 in WeatherDisplay:10.37 W/m2 CLR
13:49 60.5 °F 41.8 °F 30.00 in WNW 2.3 mph 2.3 mph 50% 0.00 in WeatherDisplay:10.37 W/m2 CLR
13:54 60.3 °F 41.6 °F 30.00 in WNW 2.3 mph   50% 0.00 in WeatherDisplay:10.37 W/m2 CLR
13:59 60.4 °F 43.7 °F 30.00 in WNW 2.3 mph   54% 0.00 in WeatherDisplay:10.37 W/m2 CLR
14:04 60.5 °F 40.7 °F 30.00 in WNW 3.5 mph 3.5 mph 48% 0.00 in WeatherDisplay:10.37 W/m2 CLR
14:09 60.5 °F 40.2 °F 30.00 in NNE 3.5 mph   47% 0.00 in WeatherDisplay:10.37 W/m2 CLR
14:14 60.4 °F 40.1 °F 30.00 in NNE 1.2 mph   47% 0.00 in WeatherDisplay:10.37 W/m2 CLR
14:19 60.4 °F 41.1 °F 30.00 in North 1.2 mph 1.2 mph 49% 0.00 in WeatherDisplay:10.37 W/m2 CLR
14:24 60.5 °F 41.8 °F 29.99 in West 1.2 mph   50% 0.00 in WeatherDisplay:10.37 W/m2 CLR
14:29 60.5 °F 41.2 °F 29.99 in West 1.2 mph   49% 0.00 in WeatherDisplay:10.37 W/m2 CLR
14:34 60.9 °F 41.6 °F 29.99 in West 1.2 mph 1.2 mph 49% 0.00 in WeatherDisplay:10.37 W/m2 CLR
14:39 61.3 °F 42.0 °F 29.99 in SE 1.2 mph 1.2 mph 49% 0.00 in WeatherDisplay:10.37 W/m2 CLR
14:44 61.4 °F 41.0 °F 29.99 in SE 1.2 mph 1.2 mph 47% 0.00 in WeatherDisplay:10.37 W/m2 CLR
14:50 61.4 °F 42.1 °F 29.99 in East 1.2 mph 1.2 mph 49% 0.00 in WeatherDisplay:10.37 W/m2 CLR
14:55 61.3 °F 42.0 °F 29.99 in Calm   1.0 mph 49% 0.00 in WeatherDisplay:10.37 W/m2 CLR
15:00 61.9 °F 42.5 °F 29.99 in WNW 1.2 mph 1.2 mph 49% 0.00 in WeatherDisplay:10.37 W/m2 CLR
15:05 62.2 °F 41.7 °F 29.98 in NW 1.2 mph   47% 0.00 in WeatherDisplay:10.37 W/m2 CLR
15:10 62.1 °F 42.7 °F 29.98 in North 1.2 mph   49% 0.00 in WeatherDisplay:10.37 W/m2 CLR
15:15 61.9 °F 41.4 °F 29.98 in North 1.2 mph   47% 0.00 in WeatherDisplay:10.37 W/m2 CLR
15:20 61.6 °F 41.2 °F 29.98 in NNW 1.2 mph 1.2 mph 47% 0.00 in WeatherDisplay:10.37 W/m2 CLR
15:25 61.6 °F 42.8 °F 29.98 in WNW 1.2 mph 1.2 mph 50% 0.00 in WeatherDisplay:10.37 W/m2 CLR
15:30 61.4 °F 42.6 °F 29.98 in WNW 1.2 mph   50% 0.00 in WeatherDisplay:10.37 W/m2 CLR
15:35 61.3 °F 41.4 °F 29.98 in West 2.3 mph   48% 0.00 in WeatherDisplay:10.37 W/m2 CLR
15:40 61.1 °F 42.3 °F 29.98 in SW 2.3 mph   50% 0.00 in WeatherDisplay:10.37 W/m2 CLR
15:45 60.9 °F 41.1 °F 29.98 in SW 1.2 mph 1.2 mph 48% 0.00 in WeatherDisplay:10.37 W/m2 CLR
15:51 60.7 °F 42.5 °F 29.98 in South 1.2 mph   51% 0.00 in WeatherDisplay:10.37 W/m2 CLR
15:56 60.4 °F 41.7 °F 29.98 in SSE 1.2 mph   50% 0.00 in WeatherDisplay:10.37 W/m2 CLR
16:01 60.3 °F 41.6 °F 29.98 in Calm     50% 0.00 in WeatherDisplay:10.37 W/m2 CLR
16:06 60.0 °F 41.8 °F 29.98 in WSW 1.2 mph   51% 0.00 in WeatherDisplay:10.37 W/m2 FEW
16:11 59.7 °F 41.5 °F 29.98 in WNW 1.2 mph   51% 0.00 in WeatherDisplay:10.37 W/m2 FEW
16:16 59.4 °F 41.3 °F 29.98 in Calm     51% 0.00 in WeatherDisplay:10.37 W/m2 FEW
16:21 59.1 °F 42.0 °F 29.98 in Calm     53% 0.00 in WeatherDisplay:10.37 W/m2 FEW
16:26 58.9 °F 42.3 °F 29.98 in NW 1.2 mph   54% 0.00 in WeatherDisplay:10.37 W/m2 FEW
16:31 58.7 °F 41.6 °F 29.98 in NNW 1.2 mph 1.2 mph 53% 0.00 in WeatherDisplay:10.37 W/m2 FEW
16:36 58.4 °F 41.8 °F 29.98 in NNE 1.2 mph   54% 0.00 in WeatherDisplay:10.37 W/m2 FEW
16:41 58.1 °F 42.0 °F 29.98 in NE 1.2 mph   55% 0.00 in WeatherDisplay:10.37 W/m2 FEW
16:46 57.9 °F 41.8 °F 29.99 in NE 1.2 mph   55% 0.00 in WeatherDisplay:10.37 W/m2 FEW
16:52 57.7 °F 41.6 °F 29.99 in NE 1.2 mph   55% 0.00 in WeatherDisplay:10.37 W/m2 FEW
16:57 57.5 °F 41.9 °F 29.99 in Calm     56% 0.00 in WeatherDisplay:10.37 W/m2 FEW
17:02 57.2 °F 41.6 °F 29.99 in Calm     56% 0.00 in WeatherDisplay:10.37 W/m2 FEW
17:07 56.8 °F 41.3 °F 29.99 in Calm     56% 0.00 in WeatherDisplay:10.37 W/m2 FEW
17:12 56.6 °F 41.1 °F 29.99 in Calm     56% 0.00 in WeatherDisplay:10.37 W/m2 FEW
17:17 56.4 °F 41.3 °F 29.99 in Calm     57% 0.00 in WeatherDisplay:10.37 W/m2 FEW
17:22 56.1 °F 41.1 °F 29.99 in Calm     57% 0.00 in WeatherDisplay:10.37 W/m2 FEW
17:27 55.6 °F 41.0 °F 29.99 in Calm     58% 0.00 in WeatherDisplay:10.37 W/m2 FEW
17:32 55.1 °F 41.0 °F 29.99 in Calm     59% 0.00 in WeatherDisplay:10.37 W/m2 FEW
17:37 54.6 °F 41.0 °F 29.99 in Calm     60% 0.00 in WeatherDisplay:10.37 W/m2 FEW
17:42 54.2 °F 41.0 °F 29.99 in Calm     61% 0.00 in WeatherDisplay:10.37 W/m2 FEW
17:48 53.7 °F 40.6 °F 29.99 in Calm     61% 0.00 in WeatherDisplay:10.37 W/m2 FEW
17:53 53.4 °F 41.1 °F 30.00 in Calm     63% 0.00 in WeatherDisplay:10.37 W/m2 FEW
17:58 52.9 °F 41.4 °F 30.00 in Calm     65% 0.00 in WeatherDisplay:10.37 W/m2 FEW
18:03 52.5 °F 41.1 °F 30.00 in Calm     65% 0.00 in WeatherDisplay:10.37 W/m2 FEW
18:08 52.1 °F 41.5 °F 30.00 in Calm     67% 0.00 in WeatherDisplay:10.37 W/m2 FEW
18:13 51.6 °F 41.4 °F 30.00 in Calm     68% 0.00 in WeatherDisplay:10.37 W/m2 FEW
18:19 51.4 °F 41.6 °F 30.00 in Calm     69% 0.00 in WeatherDisplay:10.37 W/m2 FEW
18:24 51.3 °F 41.5 °F 30.00 in Calm     69% 0.00 in WeatherDisplay:10.37 W/m2 FEW
18:29 51.1 °F 41.3 °F 30.00 in Calm     69% 0.00 in WeatherDisplay:10.37 W/m2 FEW
18:34 50.6 °F 41.5 °F 30.00 in Calm     71% 0.00 in WeatherDisplay:10.37 W/m2 FEW
18:39 50.2 °F 41.5 °F 30.00 in Calm     72% 0.00 in WeatherDisplay:10.37 W/m2 FEW
18:45 50.1 °F 41.8 °F 30.00 in Calm     73% 0.00 in WeatherDisplay:10.37 W/m2 FEW
18:50 49.9 °F 41.6 °F 30.00 in Calm     73% 0.00 in WeatherDisplay:10.37 W/m2 FEW
18:55 49.6 °F 41.3 °F 30.00 in Calm     73% 0.00 in WeatherDisplay:10.37 W/m2 FEW
19:00 49.3 °F 41.4 °F 30.00 in Calm     74% 0.00 in WeatherDisplay:10.37 W/m2 FEW
19:05 49.0 °F 41.4 °F 30.00 in Calm     75% 0.00 in WeatherDisplay:10.37 W/m2 CLR
19:10 48.7 °F 41.1 °F 30.00 in Calm     75% 0.00 in WeatherDisplay:10.37 W/m2 CLR
19:15 48.4 °F 41.5 °F 30.00 in Calm     77% 0.00 in WeatherDisplay:10.37 W/m2 CLR
19:20 48.2 °F 41.7 °F 30.00 in Calm     78% 0.00 in WeatherDisplay:10.37 W/m2 CLR
19:25 47.9 °F 41.4 °F 30.00 in Calm     78% 0.00 in WeatherDisplay:10.37 W/m2 CLR
19:31 47.7 °F 41.5 °F 30.01 in Calm     79% 0.00 in WeatherDisplay:10.37 W/m2 CLR
19:36 47.6 °F 41.4 °F 30.01 in Calm     79% 0.00 in WeatherDisplay:10.37 W/m2 CLR
19:41 47.6 °F 41.4 °F 30.01 in Calm     79% 0.00 in WeatherDisplay:10.37 W/m2 CLR
19:46 47.5 °F 41.6 °F 30.01 in Calm     80% 0.00 in WeatherDisplay:10.37 W/m2 CLR
19:56 47.0 °F 41.1 °F 30.01 in Calm     80% 0.00 in WeatherDisplay:10.37 W/m2 CLR
20:01 46.8 °F 41.3 °F 30.01 in Calm     81% 0.00 in WeatherDisplay:10.37 W/m2 CLR
20:06 46.8 °F 41.3 °F 30.01 in Calm     81% 0.00 in WeatherDisplay:10.37 W/m2 CLR
20:11 46.7 °F 41.2 °F 30.01 in Calm     81% 0.00 in WeatherDisplay:10.37 W/m2 CLR
20:16 46.5 °F 41.0 °F 30.01 in Calm     81% 0.00 in WeatherDisplay:10.37 W/m2 CLR
20:21 46.4 °F 41.2 °F 30.01 in Calm     82% 0.00 in WeatherDisplay:10.37 W/m2 CLR
20:24 46.3 °F 41.1 °F 30.01 in Calm     82% 0.00 in WeatherDisplay:10.37 W/m2 CLR
20:29 46.1 °F 40.9 °F 30.01 in Calm     82% 0.00 in WeatherDisplay:10.37 W/m2 CLR
20:35 46.0 °F 40.8 °F 30.01 in Calm     82% 0.00 in WeatherDisplay:10.37 W/m2 CLR
20:37 46.0 °F 41.1 °F 30.01 in Calm     83% 0.00 in WeatherDisplay:10.37 W/m2 CLR
20:42 46.4 °F 41.5 °F 30.02 in Calm     83% 0.00 in WeatherDisplay:10.37 W/m2 CLR
20:47 46.4 °F 41.5 °F 30.02 in Calm     83% 0.00 in WeatherDisplay:10.37 W/m2 CLR
20:52 46.3 °F 41.1 °F 30.02 in Calm     82% 0.00 in WeatherDisplay:10.37 W/m2 CLR
20:58 46.0 °F 40.8 °F 30.02 in Calm     82% 0.00 in WeatherDisplay:10.37 W/m2 CLR
21:03 45.7 °F 40.8 °F 30.02 in Calm     83% 0.00 in WeatherDisplay:10.37 W/m2 CLR
21:08 45.5 °F 40.6 °F 30.02 in Calm     83% 0.00 in WeatherDisplay:10.37 W/m2 CLR
21:13 45.5 °F 40.9 °F 30.02 in Calm     84% 0.00 in WeatherDisplay:10.37 W/m2 CLR
21:18 45.8 °F 41.5 °F 30.02 in Calm     85% 0.00 in WeatherDisplay:10.37 W/m2 CLR
21:23 46.1 °F 41.2 °F 30.02 in Calm     83% 0.00 in WeatherDisplay:10.37 W/m2 CLR
21:28 45.7 °F 40.8 °F 30.02 in Calm     83% 0.00 in WeatherDisplay:10.37 W/m2 CLR
21:33 45.5 °F 40.6 °F 30.02 in Calm     83% 0.00 in WeatherDisplay:10.37 W/m2 CLR
21:38 45.1 °F 40.6 °F 30.02 in Calm     84% 0.00 in WeatherDisplay:10.37 W/m2 CLR
21:43 45.1 °F 40.9 °F 30.02 in Calm     85% 0.00 in WeatherDisplay:10.37 W/m2 CLR
21:48 45.3 °F 41.1 °F 30.03 in Calm     85% 0.00 in WeatherDisplay:10.37 W/m2 CLR
21:53 45.2 °F 40.7 °F 30.03 in Calm     84% 0.00 in WeatherDisplay:10.37 W/m2 CLR
21:58 44.9 °F 40.4 °F 30.03 in Calm     84% 0.00 in WeatherDisplay:10.37 W/m2 CLR
22:03 44.6 °F 40.4 °F 30.03 in Calm     85% 0.00 in WeatherDisplay:10.37 W/m2 FEW
22:09 44.4 °F 40.2 °F 30.03 in Calm     85% 0.00 in WeatherDisplay:10.37 W/m2 FEW
22:14 44.2 °F 40.0 °F 30.03 in Calm     85% 0.00 in WeatherDisplay:10.37 W/m2 FEW
22:19 44.0 °F 40.1 °F 30.03 in Calm     86% 0.00 in WeatherDisplay:10.37 W/m2 FEW
22:21 44.0 °F 40.1 °F 30.03 in Calm     86% 0.00 in WeatherDisplay:10.37 W/m2 FEW
22:25 43.9 °F 40.3 °F 30.03 in Calm     87% 0.00 in WeatherDisplay:10.37 W/m2 FEW
22:29 43.9 °F 40.3 °F 30.03 in Calm     87% 0.00 in WeatherDisplay:10.37 W/m2 FEW
22:34 43.6 °F 40.0 °F 30.03 in Calm     87% 0.00 in WeatherDisplay:10.37 W/m2 FEW
22:39 43.4 °F 39.8 °F 30.03 in Calm     87% 0.00 in WeatherDisplay:10.37 W/m2 FEW
22:44 43.6 °F 40.3 °F 30.03 in Calm     88% 0.00 in WeatherDisplay:10.37 W/m2 FEW
22:49 43.6 °F 40.0 °F 30.03 in Calm     87% 0.00 in WeatherDisplay:10.37 W/m2 FEW
22:54 43.5 °F 39.9 °F 30.03 in Calm     87% 0.00 in WeatherDisplay:10.37 W/m2 FEW
22:59 43.3 °F 39.7 °F 30.03 in Calm     87% 0.00 in WeatherDisplay:10.37 W/m2 FEW
23:04 43.1 °F 39.5 °F 30.03 in Calm     87% 0.00 in WeatherDisplay:10.37 W/m2 FEW
23:09 42.9 °F 39.6 °F 30.03 in Calm     88% 0.00 in WeatherDisplay:10.37 W/m2 FEW
23:14 42.8 °F 39.5 °F 30.03 in Calm     88% 0.00 in WeatherDisplay:10.37 W/m2 FEW
23:19 42.6 °F 39.3 °F 30.03 in Calm     88% 0.00 in WeatherDisplay:10.37 W/m2 FEW
23:24 42.5 °F 39.2 °F 30.03 in Calm     88% 0.00 in WeatherDisplay:10.37 W/m2 FEW
23:29 42.4 °F 39.1 °F 30.03 in Calm     88% 0.00 in WeatherDisplay:10.37 W/m2 FEW
23:35 42.3 °F 39.0 °F 30.03 in Calm     88% 0.00 in WeatherDisplay:10.37 W/m2 FEW
23:40 42.2 °F 38.9 °F 30.03 in Calm     88% 0.00 in WeatherDisplay:10.37 W/m2 FEW
23:45 42.1 °F 39.1 °F 30.03 in Calm     89% 0.00 in WeatherDisplay:10.37 W/m2 FEW
23:50 42.1 °F 39.1 °F 30.02 in Calm     89% 0.00 in WeatherDisplay:10.37 W/m2 FEW
23:55 42.0 °F 39.0 °F 30.02 in Calm     89% 0.00 in WeatherDisplay:10.37 W/m2 FEW
Piedmont Bend
Compliments of Weather Underground - 4 mb